Time;durP1;ratioP1;P1;durP2;ratioP2;P2;SDS_P1;SDS_P2;PMS_P1;PMS_P2;Temp;Humidity;BMP_temperature;BMP_pressure;BME280_temperature;BME280_humidity;BME280_pressure;Samples;Min_cycle;Max_cycle;Signal;HPM_P1;HPM_P2
2022/01/10 00:00:40;;;;;;;3.83;2.43;;;6.00;92.00;;;;;;970983;146;27398;-82
2022/01/10 00:03:07;;;;;;;3.30;2.33;;;5.90;92.10;;;;;;965550;146;27217;-79
2022/01/10 00:05:33;;;;;;;4.07;2.33;;;5.90;92.10;;;;;;973947;146;27278;-81
2022/01/10 00:08:02;;;;;;;2.37;2.17;;;5.80;92.30;;;;;;976066;146;27300;-82
2022/01/10 00:10:27;;;;;;;3.47;2.60;;;5.70;92.30;;;;;;958456;148;27855;-82
2022/01/10 00:12:53;;;;;;;2.53;2.33;;;5.70;92.50;;;;;;959443;146;27450;-79
2022/01/10 00:15:20;;;;;;;2.87;2.50;;;5.70;92.60;;;;;;964744;148;27339;-81
2022/01/10 00:17:46;;;;;;;3.57;2.23;;;5.60;92.60;;;;;;956120;146;27466;-82
2022/01/10 00:20:13;;;;;;;3.07;2.10;;;5.50;92.60;;;;;;956772;148;27323;-82
2022/01/10 00:22:41;;;;;;;2.93;2.67;;;5.50;92.60;;;;;;958442;146;27380;-80
2022/01/10 00:25:06;;;;;;;2.40;2.20;;;5.50;92.60;;;;;;964804;148;27296;-81
2022/01/10 00:27:33;;;;;;;2.50;1.93;;;5.40;92.50;;;;;;962630;146;27303;-79
2022/01/10 00:29:59;;;;;;;3.17;2.83;;;5.30;92.50;;;;;;980594;146;27254;-82
2022/01/10 00:32:29;;;;;;;2.83;2.17;;;5.20;92.50;;;;;;962745;146;28379;-82
2022/01/10 00:34:55;;;;;;;3.77;2.30;;;5.20;92.60;;;;;;964188;145;27338;-80
2022/01/10 00:37:22;;;;;;;3.13;2.33;;;5.10;92.70;;;;;;950518;146;27351;-82
2022/01/10 00:39:49;;;;;;;4.03;2.70;;;5.10;92.70;;;;;;965823;146;27278;-80
2022/01/10 00:42:15;;;;;;;3.43;2.20;;;5.00;92.80;;;;;;978757;146;27304;-81
2022/01/10 00:44:49;;;;;;;3.50;2.33;;;4.90;92.80;;;;;;958105;148;27260;-82
2022/01/10 00:47:08;;;;;;;4.03;2.50;;;4.90;92.90;;;;;;956584;146;27359;-78
2022/01/10 00:49:35;;;;;;;3.43;1.93;;;4.80;92.90;;;;;;930644;151;28640;-81
2022/01/10 00:52:01;;;;;;;4.20;2.53;;;4.70;93.00;;;;;;930644;151;27481;-80
2022/01/10 00:54:28;;;;;;;3.07;2.37;;;4.70;93.10;;;;;;938599;151;27449;-81
2022/01/10 00:56:55;;;;;;;3.80;2.80;;;4.60;93.10;;;;;;933786;151;27446;-76
2022/01/10 00:59:21;;;;;;;2.83;2.27;;;4.50;93.10;;;;;;934626;151;27726;-81
2022/01/10 01:01:48;;;;;;;3.30;2.77;;;4.50;93.20;;;;;;936328;151;27435;-82
2022/01/10 01:04:17;;;;;;;3.87;2.60;;;4.40;93.60;;;;;;941650;151;27460;-80
2022/01/10 01:06:44;;;;;;;4.87;2.80;;;4.40;93.30;;;;;;938171;151;27338;-80
2022/01/10 01:09:12;;;;;;;3.63;2.50;;;4.30;93.40;;;;;;942751;151;28212;-82
2022/01/10 01:12:17;;;;;;;4.23;3.20;;;4.30;93.60;;;;;;937013;151;27373;-78
2022/01/10 01:14:21;;;;;;;4.93;2.77;;;4.30;93.80;;;;;;925472;151;27382;-80
2022/01/10 01:19:27;;;;;;;3.30;3.00;;;4.20;94.10;;;;;;950518;149;27304;-83
2022/01/10 01:24:13;;;;;;;4.23;2.80;;;4.20;94.30;;;;;;953169;149;27727;-82
2022/01/10 01:26:43;;;;;;;6.23;2.90;;;4.20;94.50;;;;;;956872;149;27348;-83
2022/01/10 01:29:09;;;;;;;3.67;2.80;;;4.10;94.70;;;;;;955027;148;27340;-81
2022/01/10 01:31:36;;;;;;;3.07;2.77;;;4.10;94.80;;;;;;954976;149;27311;-81
2022/01/10 01:34:02;;;;;;;3.47;2.77;;;4.20;95.00;;;;;;961555;148;27367;-83
2022/01/10 01:36:30;;;;;;;2.83;2.40;;;4.20;95.10;;;;;;952773;149;27258;-84
2022/01/10 01:38:56;;;;;;;3.07;2.50;;;4.20;95.60;;;;;;957337;148;27371;-81
2022/01/10 01:43:54;;;;;;;4.67;2.93;;;4.30;95.60;;;;;;961611;147;27293;-81
2022/01/10 01:46:23;;;;;;;3.13;2.63;;;4.40;95.70;;;;;;958157;149;27291;-81
2022/01/10 01:48:50;;;;;;;3.50;2.93;;;4.40;95.60;;;;;;957924;147;27369;-83
2022/01/10 01:51:17;;;;;;;4.40;2.67;;;4.50;95.50;;;;;;948151;149;27319;-82
2022/01/10 01:53:43;;;;;;;2.90;2.43;;;4.50;95.50;;;;;;948649;149;27966;-83
2022/01/10 01:56:13;;;;;;;3.53;3.03;;;4.60;95.60;;;;;;955270;149;27211;-83
2022/01/10 01:58:39;;;;;;;3.20;2.90;;;4.60;95.70;;;;;;951419;149;27379;-83
2022/01/10 02:01:06;;;;;;;3.97;3.20;;;4.60;95.60;;;;;;962183;148;27275;-82
2022/01/10 02:03:38;;;;;;;4.83;2.93;;;4.70;95.70;;;;;;954000;146;27233;-82
2022/01/10 02:06:02;;;;;;;6.33;3.23;;;4.70;95.50;;;;;;951844;149;27307;-81
2022/01/10 02:08:28;;;;;;;5.37;3.70;;;4.70;95.20;;;;;;957672;148;27309;-82
2022/01/10 02:10:58;;;;;;;7.00;3.70;;;4.80;95.10;;;;;;957797;147;27274;-79
2022/01/10 02:13:24;;;;;;;5.37;3.57;;;4.80;94.90;;;;;;959742;149;27386;-82
2022/01/10 02:15:58;;;;;;;5.53;3.67;;;4.80;94.90;;;;;;963468;148;27342;-80
2022/01/10 02:18:20;;;;;;;6.23;3.87;;;4.70;95.00;;;;;;963237;148;27294;-82
2022/01/10 02:20:47;;;;;;;5.47;3.20;;;4.70;95.20;;;;;;956028;148;27426;-81
2022/01/10 02:23:14;;;;;;;4.87;3.20;;;4.80;95.30;;;;;;958457;148;27302;-81
2022/01/10 02:25:40;;;;;;;6.77;4.10;;;4.80;95.40;;;;;;958121;148;27302;-82
2022/01/10 02:28:07;;;;;;;4.67;3.50;;;4.80;95.40;;;;;;956129;147;27688;-81
2022/01/10 02:30:33;;;;;;;4.47;3.37;;;4.80;95.40;;;;;;958883;148;27716;-80
2022/01/10 02:33:01;;;;;;;6.30;3.63;;;4.80;95.50;;;;;;953625;148;27384;-81
2022/01/10 02:35:50;;;;;;;4.87;3.13;;;4.90;95.60;;;;;;965197;148;27260;-82
2022/01/10 02:38:08;;;;;;;4.13;3.10;;;4.90;95.70;;;;;;958141;148;27389;-79
2022/01/10 02:40:35;;;;;;;4.37;3.07;;;5.00;95.80;;;;;;955472;148;28054;-80
2022/01/10 02:43:01;;;;;;;4.60;3.77;;;5.00;95.90;;;;;;956375;148;27234;-82
2022/01/10 02:45:28;;;;;;;4.40;3.00;;;5.10;96.00;;;;;;956406;148;27753;-81
2022/01/10 02:47:54;;;;;;;4.33;3.03;;;5.10;96.00;;;;;;958209;148;27403;-82
2022/01/10 02:50:21;;;;;;;5.93;3.80;;;5.20;96.00;;;;;;956523;148;27288;-80
2022/01/10 02:52:47;;;;;;;6.13;3.67;;;5.20;96.00;;;;;;951971;148;27358;-81
2022/01/10 02:55:14;;;;;;;3.80;3.00;;;5.30;95.90;;;;;;962949;146;27652;-77
2022/01/10 02:57:41;;;;;;;5.97;3.60;;;5.40;95.90;;;;;;962313;146;27313;-82
2022/01/10 03:00:07;;;;;;;8.73;3.37;;;5.40;96.20;;;;;;969599;147;27260;-82
2022/01/10 03:02:36;;;;;;;5.33;3.03;;;5.40;95.80;;;;;;958965;147;27321;-82
2022/01/10 03:05:06;;;;;;;4.13;3.00;;;5.50;95.70;;;;;;961387;148;27297;-73
2022/01/10 03:07:32;;;;;;;2.83;2.63;;;5.50;95.50;;;;;;961901;148;27263;-73
2022/01/10 03:09:59;;;;;;;3.80;3.37;;;5.50;95.20;;;;;;960595;148;27313;-73
2022/01/10 03:12:26;;;;;;;5.03;3.17;;;5.50;94.90;;;;;;961541;148;27296;-73
2022/01/10 03:14:52;;;;;;;3.60;2.90;;;5.50;94.80;;;;;;961264;148;27360;-73
2022/01/10 03:17:19;;;;;;;3.40;2.80;;;5.50;94.80;;;;;;963869;146;27333;-73
2022/01/10 03:19:46;;;;;;;4.17;3.00;;;5.50;94.70;;;;;;974839;144;27232;-73
2022/01/10 03:22:12;;;;;;;3.90;2.80;;;5.50;94.70;;;;;;982453;144;27311;-82
2022/01/10 03:24:38;;;;;;;3.00;2.70;;;5.40;94.70;;;;;;987303;144;27312;-80
2022/01/10 03:27:05;;;;;;;4.47;2.80;;;5.40;94.70;;;;;;960732;148;28033;-80
2022/01/10 03:29:32;;;;;;;5.30;3.17;;;5.40;94.70;;;;;;957538;148;27300;-82
2022/01/10 03:31:58;;;;;;;3.43;2.97;;;5.40;94.80;;;;;;954554;148;27738;-82
2022/01/10 03:34:25;;;;;;;3.60;3.30;;;5.40;94.80;;;;;;956223;148;27323;-82
2022/01/10 03:36:51;;;;;;;3.07;2.70;;;5.40;94.90;;;;;;952532;148;27316;-76
2022/01/10 03:39:18;;;;;;;5.37;3.50;;;5.40;94.90;;;;;;959506;148;27342;-82
2022/01/10 03:41:45;;;;;;;3.63;2.90;;;5.40;94.90;;;;;;952108;148;27309;-82
2022/01/10 03:44:11;;;;;;;5.07;3.50;;;5.30;94.90;;;;;;954769;148;27293;-82
2022/01/10 03:46:38;;;;;;;4.20;3.10;;;5.30;94.90;;;;;;957541;148;27428;-80
2022/01/10 03:49:04;;;;;;;6.23;3.57;;;5.30;95.00;;;;;;961006;148;27282;-80
2022/01/10 03:51:31;;;;;;;3.97;3.03;;;5.30;95.00;;;;;;961355;148;27283;-81
2022/01/10 03:54:00;;;;;;;3.33;2.97;;;5.30;95.00;;;;;;957445;148;27313;-80
2022/01/10 03:56:27;;;;;;;3.47;2.80;;;5.30;95.00;;;;;;957908;148;27282;-82
2022/01/10 03:58:53;;;;;;;3.57;2.87;;;5.30;95.00;;;;;;956999;148;27290;-79
2022/01/10 04:01:20;;;;;;;4.07;3.03;;;5.30;94.70;;;;;;955852;148;27263;-80
2022/01/10 04:03:47;;;;;;;3.43;2.63;;;5.30;94.40;;;;;;958110;148;27762;-80
2022/01/10 04:06:13;;;;;;;4.67;2.80;;;5.30;94.00;;;;;;957645;148;27290;-82
2022/01/10 04:08:40;;;;;;;4.63;2.57;;;5.20;93.80;;;;;;953343;148;27246;-81
2022/01/10 04:11:06;;;;;;;4.63;2.70;;;5.10;93.70;;;;;;956674;148;27739;-80
2022/01/10 04:13:33;;;;;;;5.03;3.10;;;5.00;93.60;;;;;;955560;148;27326;-75
2022/01/10 04:15:59;;;;;;;3.87;2.90;;;4.90;93.50;;;;;;965006;148;27383;-82
2022/01/10 04:18:26;;;;;;;4.37;2.93;;;4.80;93.50;;;;;;955594;148;27373;-82
2022/01/10 04:20:53;;;;;;;2.83;2.27;;;4.70;93.60;;;;;;951012;148;27318;-80
2022/01/10 04:23:19;;;;;;;4.57;2.90;;;4.70;93.70;;;;;;957803;148;27318;-82
2022/01/10 04:25:46;;;;;;;4.00;2.80;;;4.60;93.70;;;;;;957906;148;27274;-80
2022/01/10 04:28:12;;;;;;;4.30;2.50;;;4.50;93.70;;;;;;960236;148;27266;-82
2022/01/10 04:30:41;;;;;;;3.10;2.23;;;4.40;93.70;;;;;;959646;148;27339;-78
2022/01/10 04:33:10;;;;;;;3.03;2.60;;;4.30;93.70;;;;;;958452;148;27274;-81
2022/01/10 04:35:35;;;;;;;4.20;3.27;;;4.20;93.70;;;;;;957345;148;27226;-79
2022/01/10 04:38:02;;;;;;;4.90;3.30;;;4.10;93.80;;;;;;961876;148;27291;-80
2022/01/10 04:40:28;;;;;;;6.47;3.20;;;4.00;93.90;;;;;;957524;148;27294;-76
2022/01/10 04:42:54;;;;;;;2.63;2.43;;;4.00;94.00;;;;;;959340;148;27335;-81
2022/01/10 04:45:21;;;;;;;4.67;2.67;;;3.90;94.00;;;;;;957754;148;27410;-82
2022/01/10 04:47:48;;;;;;;4.60;3.50;;;3.80;94.10;;;;;;950891;148;28016;-81
2022/01/10 04:52:44;;;;;;;3.20;2.90;;;3.60;94.30;;;;;;954365;148;27314;-79
2022/01/10 04:55:08;;;;;;;4.43;2.93;;;3.60;94.50;;;;;;956381;148;27288;-82
2022/01/10 04:57:34;;;;;;;5.33;3.50;;;3.50;94.60;;;;;;963126;148;27310;-79
2022/01/10 05:00:01;;;;;;;3.70;3.40;;;3.40;94.70;;;;;;959105;148;27290;-79
2022/01/10 05:02:27;;;;;;;5.60;3.93;;;3.40;94.90;;;;;;955589;148;27312;-81
2022/01/10 05:04:54;;;;;;;4.70;3.83;;;3.30;95.00;;;;;;958749;148;27363;-82
2022/01/10 05:07:20;;;;;;;6.13;3.93;;;3.30;95.20;;;;;;962996;148;27404;-80
2022/01/10 05:09:47;;;;;;;5.63;4.23;;;3.20;95.30;;;;;;975354;144;27260;-81
2022/01/10 05:12:14;;;;;;;5.13;4.07;;;3.20;95.50;;;;;;977970;144;27363;-81
2022/01/10 05:14:40;;;;;;;6.40;4.50;;;3.20;95.60;;;;;;971033;144;27403;-81
2022/01/10 05:17:07;;;;;;;4.17;3.83;;;3.20;95.70;;;;;;979845;144;27305;-81
2022/01/10 05:19:33;;;;;;;5.70;4.83;;;3.10;95.70;;;;;;974483;144;27339;-81
2022/01/10 05:22:00;;;;;;;7.20;5.03;;;3.10;95.80;;;;;;982567;144;27305;-82
2022/01/10 05:24:26;;;;;;;5.33;4.83;;;3.10;95.80;;;;;;950543;148;27313;-77
2022/01/10 05:26:53;;;;;;;5.47;4.63;;;3.10;95.80;;;;;;956242;146;27866;-79
2022/01/10 05:29:20;;;;;;;6.60;4.70;;;3.00;95.80;;;;;;955830;148;27286;-82
2022/01/10 05:31:46;;;;;;;6.07;4.13;;;3.00;95.80;;;;;;959982;148;27347;-81
2022/01/10 05:34:13;;;;;;;6.63;4.03;;;3.00;95.90;;;;;;953271;148;27334;-81
2022/01/10 05:36:39;;;;;;;4.57;3.77;;;2.90;95.90;;;;;;953150;148;27321;-81
2022/01/10 05:39:07;;;;;;;5.20;4.03;;;2.90;95.90;;;;;;950996;148;27299;-82
2022/01/10 05:41:33;;;;;;;4.47;3.70;;;2.90;96.00;;;;;;961569;148;27315;-80
2022/01/10 05:44:02;;;;;;;4.23;3.83;;;2.90;96.00;;;;;;951030;148;27335;-81
2022/01/10 05:46:29;;;;;;;6.80;4.57;;;2.90;96.00;;;;;;960348;148;27318;-84
2022/01/10 05:49:00;;;;;;;6.10;4.33;;;2.80;96.00;;;;;;959359;148;27704;-84
2022/01/10 05:51:28;;;;;;;4.97;4.23;;;2.80;96.10;;;;;;959013;148;27349;-81
2022/01/10 05:53:51;;;;;;;5.80;4.67;;;2.80;96.00;;;;;;957566;148;27291;-81
2022/01/10 05:56:18;;;;;;;5.67;4.27;;;2.70;96.00;;;;;;951037;147;27273;-79
2022/01/10 05:58:44;;;;;;;5.73;4.47;;;2.70;96.00;;;;;;982363;145;27355;-83
2022/01/10 06:01:11;;;;;;;5.57;4.87;;;2.70;96.10;;;;;;971469;146;27293;-83
2022/01/10 06:03:37;;;;;;;5.20;4.33;;;2.60;96.10;;;;;;960970;148;27218;-83
2022/01/10 06:06:04;;;;;;;4.63;4.23;;;2.60;96.20;;;;;;956701;148;27847;-78
2022/01/10 06:08:31;;;;;;;6.13;5.13;;;2.60;96.30;;;;;;960774;147;27254;-84
2022/01/10 06:10:57;;;;;;;6.43;4.67;;;2.60;96.40;;;;;;959474;147;27731;-84
2022/01/10 06:13:24;;;;;;;5.67;3.93;;;2.60;96.40;;;;;;963108;147;27301;-82
2022/01/10 06:15:51;;;;;;;4.97;4.43;;;2.60;96.40;;;;;;968977;147;27746;-83
2022/01/10 06:18:17;;;;;;;7.60;4.53;;;2.50;96.40;;;;;;965440;146;27342;-84
2022/01/10 06:20:43;;;;;;;5.73;4.10;;;2.50;96.40;;;;;;946686;147;27404;-83
2022/01/10 06:23:13;;;;;;;5.23;3.97;;;2.50;96.40;;;;;;957166;146;27345;-84
2022/01/10 06:25:40;;;;;;;5.93;3.77;;;2.50;96.40;;;;;;957472;146;27450;-83
2022/01/10 06:28:06;;;;;;;5.87;3.83;;;2.50;96.70;;;;;;957810;147;27244;-83
2022/01/10 06:30:33;;;;;;;4.53;3.73;;;2.40;96.40;;;;;;960946;149;27270;-83
2022/01/10 06:32:59;;;;;;;4.13;3.73;;;2.40;96.50;;;;;;957597;148;27298;-83
2022/01/10 06:35:26;;;;;;;6.00;4.43;;;2.40;96.60;;;;;;957411;148;27396;-83
2022/01/10 06:37:52;;;;;;;6.33;4.57;;;2.40;96.90;;;;;;948599;147;27409;-83
2022/01/10 06:40:22;;;;;;;7.17;4.60;;;2.40;96.80;;;;;;962873;144;27271;-82
2022/01/10 06:42:48;;;;;;;7.37;4.63;;;2.40;96.90;;;;;;964010;146;27432;-83
2022/01/10 06:45:15;;;;;;;5.20;4.67;;;2.40;97.10;;;;;;973073;146;27251;-82
2022/01/10 06:47:42;;;;;;;6.17;4.57;;;2.40;97.30;;;;;;966487;146;27347;-82
2022/01/10 06:50:08;;;;;;;5.07;3.90;;;2.40;97.50;;;;;;953315;146;27336;-84
2022/01/10 06:52:35;;;;;;;8.03;4.50;;;2.50;97.80;;;;;;975393;146;27330;-83
2022/01/10 06:55:01;;;;;;;6.63;5.30;;;2.50;98.00;;;;;;974224;146;27325;-79
2022/01/10 06:57:28;;;;;;;6.97;4.87;;;2.60;98.20;;;;;;968765;146;27386;-83
2022/01/10 06:59:54;;;;;;;9.27;5.53;;;2.60;98.40;;;;;;972159;146;27309;-82
2022/01/10 07:02:21;;;;;;;5.27;4.73;;;2.70;98.50;;;;;;956990;146;27339;-84
2022/01/10 07:04:48;;;;;;;7.47;5.30;;;2.80;98.60;;;;;;971979;146;27303;-84
2022/01/10 07:07:14;;;;;;;10.27;5.30;;;2.90;98.70;;;;;;965386;146;27786;-83
2022/01/10 07:09:41;;;;;;;6.80;5.07;;;3.00;98.70;;;;;;966047;146;27409;-83
2022/01/10 07:12:08;;;;;;;8.10;5.43;;;3.00;98.70;;;;;;973696;146;27466;-78
2022/01/10 07:14:35;;;;;;;7.57;5.00;;;3.10;98.70;;;;;;960058;146;27363;-83
2022/01/10 07:17:01;;;;;;;8.77;5.20;;;3.20;98.60;;;;;;961088;146;27406;-85
2022/01/10 07:19:27;;;;;;;5.43;4.73;;;3.20;98.50;;;;;;972123;146;27301;-85
2022/01/10 07:21:54;;;;;;;6.67;4.80;;;3.30;98.50;;;;;;962373;146;27407;-85
2022/01/10 07:24:23;;;;;;;4.93;4.53;;;3.30;98.40;;;;;;951737;146;27312;-81
2022/01/10 07:26:50;;;;;;;6.23;4.70;;;3.40;98.30;;;;;;958307;148;27409;-86
2022/01/10 07:29:16;;;;;;;5.37;4.10;;;3.40;98.20;;;;;;961208;146;27238;-85
2022/01/10 07:31:43;;;;;;;11.47;5.00;;;3.50;98.20;;;;;;969690;146;27414;-82
2022/01/10 07:34:15;;;;;;;6.67;5.00;;;3.50;98.20;;;;;;975476;146;27956;-85
2022/01/10 07:36:39;;;;;;;8.00;7.13;;;3.60;98.20;;;;;;965281;146;27308;-80
2022/01/10 07:39:05;;;;;;;9.23;6.13;;;3.60;98.20;;;;;;960210;146;27304;-82
2022/01/10 07:41:32;;;;;;;6.63;5.77;;;3.60;98.20;;;;;;962006;146;27398;-82
2022/01/10 07:43:59;;;;;;;6.63;5.30;;;3.70;98.20;;;;;;959082;146;27348;-81
2022/01/10 07:46:25;;;;;;;5.00;4.47;;;3.70;98.30;;;;;;974277;146;27286;-82
2022/01/10 07:48:54;;;;;;;5.93;4.57;;;3.80;98.40;;;;;;970869;146;27301;-83
2022/01/10 07:51:19;;;;;;;5.53;4.63;;;3.90;98.40;;;;;;969038;146;27431;-81
2022/01/10 07:53:45;;;;;;;5.80;4.50;;;3.90;98.40;;;;;;962318;148;27292;-83
2022/01/10 07:56:11;;;;;;;4.33;4.00;;;4.00;98.30;;;;;;962882;146;27281;-81
2022/01/10 07:58:38;;;;;;;4.97;4.13;;;4.00;98.20;;;;;;972138;146;27295;-83
2022/01/10 08:01:05;;;;;;;6.20;4.70;;;4.10;98.20;;;;;;961471;146;27290;-83
2022/01/10 08:03:31;;;;;;;6.70;4.60;;;4.10;98.00;;;;;;962590;146;27370;-83
2022/01/10 08:06:00;;;;;;;6.50;4.50;;;4.20;98.00;;;;;;958449;147;27392;-82
2022/01/10 08:08:28;;;;;;;4.37;3.97;;;4.20;97.90;;;;;;961894;146;27293;-84
2022/01/10 08:10:54;;;;;;;4.57;4.17;;;4.30;97.90;;;;;;963839;146;27362;-82
2022/01/10 08:13:20;;;;;;;5.20;4.43;;;4.30;97.80;;;;;;954822;146;27296;-82
2022/01/10 08:15:47;;;;;;;5.13;4.57;;;4.40;97.80;;;;;;954798;146;27333;-83
2022/01/10 08:18:13;;;;;;;4.57;4.03;;;4.40;97.80;;;;;;965964;146;27289;-80
2022/01/10 08:20:40;;;;;;;5.57;4.40;;;4.50;97.90;;;;;;955797;146;27776;-83
2022/01/10 08:23:06;;;;;;;5.13;4.13;;;4.60;98.00;;;;;;948678;146;27303;-81
2022/01/10 08:25:33;;;;;;;5.87;4.50;;;4.60;98.00;;;;;;963954;146;27396;-78
2022/01/10 08:28:00;;;;;;;9.33;4.47;;;4.70;98.00;;;;;;951574;146;27414;-83
2022/01/10 08:30:26;;;;;;;5.13;4.23;;;4.80;98.00;;;;;;948370;149;27284;-81
2022/01/10 08:32:53;;;;;;;5.27;3.97;;;4.80;97.90;;;;;;957018;146;27389;-82
2022/01/10 08:35:22;;;;;;;4.97;4.20;;;4.90;97.90;;;;;;957118;146;27293;-82
2022/01/10 08:37:49;;;;;;;4.97;4.30;;;4.90;97.80;;;;;;951371;146;27399;-78
2022/01/10 08:40:15;;;;;;;4.87;4.37;;;5.00;97.70;;;;;;958190;146;27307;-83
2022/01/10 08:42:42;;;;;;;7.23;4.90;;;5.00;97.60;;;;;;957890;146;27385;-83
2022/01/10 08:45:09;;;;;;;6.57;5.10;;;5.10;97.70;;;;;;948431;148;27441;-81
2022/01/10 08:47:35;;;;;;;7.30;5.40;;;5.20;97.80;;;;;;956800;146;27320;-82
2022/01/10 08:50:02;;;;;;;6.00;5.13;;;5.20;97.70;;;;;;947741;147;27310;-84
2022/01/10 08:52:31;;;;;;;6.97;5.87;;;5.30;97.60;;;;;;951624;146;27225;-83
2022/01/10 08:54:58;;;;;;;7.47;5.47;;;5.30;97.60;;;;;;959847;146;27257;-86
2022/01/10 08:57:26;;;;;;;7.43;4.97;;;5.40;97.60;;;;;;963963;146;27313;-86
2022/01/10 08:59:54;;;;;;;5.53;5.00;;;5.50;97.60;;;;;;970885;146;27341;-82
2022/01/10 09:02:21;;;;;;;6.37;4.00;;;5.50;97.60;;;;;;947842;149;27351;-84
2022/01/10 09:04:47;;;;;;;6.20;5.37;;;5.60;97.60;;;;;;943597;148;28082;-79
2022/01/10 09:07:14;;;;;;;5.67;4.83;;;5.70;97.70;;;;;;949799;147;27330;-80
2022/01/10 09:09:40;;;;;;;7.27;5.23;;;5.70;97.70;;;;;;957184;147;27306;-86
2022/01/10 09:12:07;;;;;;;6.70;4.87;;;5.80;97.60;;;;;;954242;147;27377;-87
2022/01/10 09:14:33;;;;;;;5.00;4.50;;;5.90;97.60;;;;;;959108;147;27430;-83
2022/01/10 09:17:00;;;;;;;6.30;4.70;;;6.00;97.70;;;;;;947866;149;27429;-85
2022/01/10 09:19:27;;;;;;;6.70;4.80;;;6.00;97.60;;;;;;953925;147;27350;-83
2022/01/10 09:21:56;;;;;;;6.00;4.77;;;6.10;97.50;;;;;;952647;147;27431;-82
2022/01/10 09:24:23;;;;;;;6.77;4.00;;;6.20;97.50;;;;;;959003;147;27449;-82
2022/01/10 09:26:49;;;;;;;4.80;4.23;;;6.30;97.30;;;;;;951783;149;27292;-85
2022/01/10 09:29:16;;;;;;;6.57;4.77;;;6.40;97.20;;;;;;960473;147;27301;-82
2022/01/10 09:31:42;;;;;;;6.57;4.73;;;6.50;97.10;;;;;;957101;147;27279;-81
2022/01/10 09:34:09;;;;;;;5.97;4.70;;;6.50;96.90;;;;;;960851;147;27328;-77
2022/01/10 09:36:36;;;;;;;5.53;4.83;;;6.60;97.00;;;;;;959873;147;27353;-82
2022/01/10 09:39:02;;;;;;;7.63;5.33;;;6.70;96.90;;;;;;959694;147;27383;-80
2022/01/10 09:41:29;;;;;;;5.23;4.03;;;6.80;96.80;;;;;;955389;146;27355;-73
2022/01/10 09:44:00;;;;;;;5.80;4.70;;;6.90;96.80;;;;;;953749;147;27405;-81
2022/01/10 09:46:22;;;;;;;7.37;5.30;;;7.00;96.70;;;;;;948443;147;27278;-81
2022/01/10 09:48:49;;;;;;;5.53;4.50;;;7.10;96.70;;;;;;952196;147;27278;-80
2022/01/10 09:51:15;;;;;;;7.33;4.87;;;7.20;96.60;;;;;;963956;147;27295;-80
2022/01/10 09:53:42;;;;;;;6.73;5.40;;;7.30;96.50;;;;;;948529;146;27293;-82
2022/01/10 09:56:08;;;;;;;5.17;4.67;;;7.30;96.40;;;;;;960474;147;27236;-82
2022/01/10 09:58:35;;;;;;;6.47;4.93;;;7.40;96.40;;;;;;958077;147;27309;-76
2022/01/10 10:01:01;;;;;;;4.40;3.97;;;7.50;96.20;;;;;;958729;147;27318;-82
2022/01/10 10:03:28;;;;;;;6.40;5.00;;;7.60;96.20;;;;;;945224;147;27326;-82
2022/01/10 10:05:55;;;;;;;6.27;4.53;;;7.70;96.10;;;;;;954005;147;27335;-80
2022/01/10 10:08:21;;;;;;;5.07;4.30;;;7.80;96.00;;;;;;956145;147;27335;-81
2022/01/10 10:10:50;;;;;;;6.70;4.50;;;7.90;96.00;;;;;;955525;147;27383;-83
2022/01/10 10:13:17;;;;;;;5.30;4.17;;;7.90;95.90;;;;;;947926;147;27266;-82
2022/01/10 10:15:45;;;;;;;5.17;4.10;;;8.00;95.80;;;;;;955865;147;27468;-81
2022/01/10 10:18:10;;;;;;;7.33;4.87;;;8.10;95.70;;;;;;958460;146;27310;-79
2022/01/10 10:20:37;;;;;;;8.03;5.20;;;8.20;95.60;;;;;;959702;146;27715;-82
2022/01/10 10:23:03;;;;;;;7.23;5.50;;;8.30;95.50;;;;;;944751;149;27273;-82
2022/01/10 10:25:32;;;;;;;6.73;5.93;;;8.40;95.60;;;;;;960239;147;27243;-78
2022/01/10 10:27:56;;;;;;;6.33;5.50;;;8.50;95.30;;;;;;956482;149;27332;-82
2022/01/10 10:30:23;;;;;;;6.37;5.37;;;8.60;95.10;;;;;;968109;147;27328;-82
2022/01/10 10:32:50;;;;;;;7.17;5.27;;;8.70;94.90;;;;;;953410;147;27317;-76
2022/01/10 10:35:16;;;;;;;8.27;5.30;;;8.80;94.80;;;;;;957741;147;27400;-78
2022/01/10 10:37:43;;;;;;;6.43;5.20;;;8.80;94.60;;;;;;951970;147;27330;-82
2022/01/10 10:40:10;;;;;;;5.43;4.90;;;9.00;94.50;;;;;;966234;147;27382;-81
2022/01/10 10:42:39;;;;;;;8.40;5.67;;;9.00;94.40;;;;;;953526;147;27350;-80
2022/01/10 10:45:06;;;;;;;6.90;5.40;;;9.10;94.10;;;;;;954605;147;27430;-81
2022/01/10 10:47:31;;;;;;;7.73;5.77;;;9.10;93.90;;;;;;967241;147;27323;-80
2022/01/10 10:49:58;;;;;;;8.80;5.63;;;9.20;93.90;;;;;;955070;147;27299;-82
2022/01/10 10:52:25;;;;;;;7.80;5.67;;;9.30;94.00;;;;;;960497;147;27403;-81
2022/01/10 10:54:54;;;;;;;7.83;5.70;;;9.30;93.90;;;;;;956194;147;27310;-81
2022/01/10 10:57:18;;;;;;;6.57;4.97;;;9.40;94.20;;;;;;948253;146;27295;-82
2022/01/10 10:59:44;;;;;;;7.93;5.77;;;9.50;93.70;;;;;;956717;147;27281;-81
2022/01/10 11:02:15;;;;;;;8.33;5.43;;;9.50;93.60;;;;;;963875;147;27325;-80
2022/01/10 11:04:40;;;;;;;11.63;5.80;;;9.60;93.60;;;;;;947867;147;27289;-83
2022/01/10 11:07:07;;;;;;;8.70;6.40;;;9.60;93.60;;;;;;951219;147;27317;-81
2022/01/10 11:09:34;;;;;;;8.00;5.97;;;9.70;93.30;;;;;;952000;147;28317;-82
2022/01/10 11:12:00;;;;;;;7.93;6.43;;;9.80;93.20;;;;;;961778;147;27382;-81
2022/01/10 11:14:27;;;;;;;11.07;7.50;;;9.90;93.20;;;;;;974827;147;27263;-81
2022/01/10 11:16:54;;;;;;;9.47;6.83;;;9.90;93.00;;;;;;970026;147;27341;-79
2022/01/10 11:19:21;;;;;;;8.73;6.47;;;9.90;92.70;;;;;;950488;149;27399;-81
2022/01/10 11:21:47;;;;;;;7.83;6.57;;;10.00;92.50;;;;;;950363;147;27437;-83
2022/01/10 11:24:13;;;;;;;10.73;7.00;;;10.00;92.30;;;;;;963178;146;27279;-81
2022/01/10 11:26:40;;;;;;;10.10;6.90;;;10.10;92.30;;;;;;944755;149;27389;-81
2022/01/10 11:29:09;;;;;;;10.20;7.43;;;10.10;92.10;;;;;;949131;147;27443;-80
2022/01/10 11:31:36;;;;;;;11.07;7.17;;;10.10;92.00;;;;;;949190;147;27809;-79
2022/01/10 11:34:02;;;;;;;11.43;7.70;;;10.10;91.90;;;;;;952892;147;27374;-82
2022/01/10 11:36:29;;;;;;;17.47;9.30;;;10.10;91.80;;;;;;944667;147;27368;-82
2022/01/10 11:39:02;;;;;;;9.93;8.27;;;10.10;91.70;;;;;;958577;147;27415;-82
2022/01/10 11:41:28;;;;;;;8.70;7.80;;;10.10;91.40;;;;;;949417;147;27325;-78
2022/01/10 11:44:03;;;;;;;9.90;8.40;;;10.10;91.40;;;;;;963422;147;27334;-81
2022/01/10 11:46:24;;;;;;;9.00;7.97;;;10.10;91.30;;;;;;958926;147;27258;-77
2022/01/10 11:48:59;;;;;;;11.67;7.87;;;10.00;91.40;;;;;;953012;149;27367;-82
2022/01/10 11:51:34;;;;;;;8.97;6.57;;;10.00;91.40;;;;;;950166;147;27344;-83
2022/01/10 11:54:01;;;;;;;7.37;6.57;;;10.00;91.30;;;;;;965537;147;27287;-82
2022/01/10 11:56:27;;;;;;;7.70;6.87;;;10.00;91.20;;;;;;957114;146;27426;-82
2022/01/10 11:59:09;;;;;;;8.73;6.90;;;9.90;91.20;;;;;;964702;146;27334;-81
2022/01/10 12:01:36;;;;;;;12.77;7.23;;;9.90;91.30;;;;;;953381;146;27309;-82
2022/01/10 12:04:02;;;;;;;10.80;7.40;;;9.90;91.30;;;;;;950140;147;27343;-82
2022/01/10 12:06:29;;;;;;;10.00;7.27;;;9.90;91.30;;;;;;951122;149;27329;-79
2022/01/10 12:08:55;;;;;;;13.47;7.70;;;9.90;91.40;;;;;;953624;147;27314;-81
2022/01/10 12:11:25;;;;;;;9.90;7.67;;;9.90;91.60;;;;;;957087;147;27305;-82
2022/01/10 12:13:55;;;;;;;10.90;7.33;;;9.90;91.60;;;;;;945819;147;27331;-75
2022/01/10 12:16:21;;;;;;;14.60;7.97;;;10.00;91.50;;;;;;952070;147;27399;-81
2022/01/10 12:18:47;;;;;;;11.23;8.60;;;10.00;91.30;;;;;;959882;147;27383;-79
2022/01/10 12:21:14;;;;;;;12.27;8.93;;;10.00;91.10;;;;;;959327;147;27307;-82
2022/01/10 12:23:40;;;;;;;10.93;6.67;;;10.00;91.10;;;;;;954059;147;27328;-81
2022/01/10 12:26:07;;;;;;;8.57;6.80;;;10.00;90.90;;;;;;965971;147;27321;-81
2022/01/10 12:28:34;;;;;;;10.43;6.20;;;10.00;90.70;;;;;;951315;147;27356;-80
2022/01/10 12:31:03;;;;;;;9.00;5.93;;;10.00;90.60;;;;;;953943;147;27286;-81
2022/01/10 12:33:30;;;;;;;11.00;6.70;;;10.00;90.50;;;;;;963540;147;27693;-81
2022/01/10 12:35:56;;;;;;;8.63;6.57;;;10.00;90.60;;;;;;953203;147;27692;-81
2022/01/10 12:38:26;;;;;;;9.90;6.80;;;10.00;90.50;;;;;;952873;147;27328;-82
2022/01/10 12:40:52;;;;;;;11.17;7.10;;;10.00;90.60;;;;;;948612;147;27843;-81
2022/01/10 12:43:19;;;;;;;11.97;6.67;;;10.00;90.60;;;;;;952864;147;27456;-81
2022/01/10 12:45:48;;;;;;;11.77;7.20;;;10.00;90.50;;;;;;956693;147;27343;-81
2022/01/10 12:48:15;;;;;;;9.77;6.80;;;10.10;90.40;;;;;;958647;147;27331;-83
2022/01/10 12:50:42;;;;;;;8.13;6.40;;;10.10;90.40;;;;;;953205;147;27334;-80
2022/01/10 12:53:08;;;;;;;7.93;6.57;;;10.00;90.20;;;;;;956189;147;27386;-81
2022/01/10 12:55:35;;;;;;;10.40;7.33;;;10.00;90.10;;;;;;942933;149;27336;-80
2022/01/10 12:58:04;;;;;;;10.00;7.43;;;10.00;90.20;;;;;;947905;149;27262;-80
2022/01/10 13:00:28;;;;;;;13.43;8.17;;;10.00;90.10;;;;;;961823;147;27364;-81
2022/01/10 13:02:54;;;;;;;23.70;8.60;;;10.00;90.10;;;;;;952407;147;27328;-79